Map

Track Data

SID SEASON NUMBER BASIN SUBBASIN NAME ISO_TIME NATURE LAT LON WMO_WIND WMO_PRES WMO_AGENCY TRACK_TYPE DIST2LAND LANDFALL IFLAG USA_AGENCY USA_ATCF_ID USA_LAT USA_LON USA_RECORD USA_STATUS USA_WIND USA_PRES USA_SSHS USA_R34_NE USA_R34_SE USA_R34_SW USA_R34_NW USA_R50_NE USA_R50_SE USA_R50_SW USA_R50_NW USA_R64_NE USA_R64_SE USA_R64_SW USA_R64_NW USA_POCI USA_ROCI USA_RMW USA_EYE TOKYO_LAT TOKYO_LON TOKYO_GRADE TOKYO_WIND TOKYO_PRES TOKYO_R50_DIR TOKYO_R50_LONG TOKYO_R50_SHORT TOKYO_R30_DIR TOKYO_R30_LONG TOKYO_R30_SHORT TOKYO_LAND CMA_LAT CMA_LON CMA_CAT CMA_WIND CMA_PRES HKO_LAT HKO_LON HKO_CAT HKO_WIND HKO_PRES NEWDELHI_LAT NEWDELHI_LON NEWDELHI_GRADE NEWDELHI_WIND NEWDELHI_PRES NEWDELHI_CI NEWDELHI_DP NEWDELHI_POCI REUNION_LAT REUNION_LON REUNION_TYPE REUNION_WIND REUNION_PRES REUNION_TNUM REUNION_CI REUNION_RMW REUNION_R34_NE REUNION_R34_SE REUNION_R34_SW REUNION_R34_NW REUNION_R50_NE REUNION_R50_SE REUNION_R50_SW REUNION_R50_NW REUNION_R64_NE REUNION_R64_SE REUNION_R64_SW REUNION_R64_NW BOM_LAT BOM_LON BOM_TYPE BOM_WIND BOM_PRES BOM_TNUM BOM_CI BOM_RMW BOM_R34_NE BOM_R34_SE BOM_R34_SW BOM_R34_NW BOM_R50_NE BOM_R50_SE BOM_R50_SW BOM_R50_NW BOM_R64_NE BOM_R64_SE BOM_R64_SW BOM_R64_NW BOM_ROCI BOM_POCI BOM_EYE BOM_POS_METHOD BOM_PRES_METHOD NADI_LAT NADI_LON NADI_CAT NADI_WIND NADI_PRES WELLINGTON_LAT WELLINGTON_LON WELLINGTON_WIND WELLINGTON_PRES DS824_LAT DS824_LON DS824_STAGE DS824_WIND DS824_PRES TD9636_LAT TD9636_LON TD9636_STAGE TD9636_WIND TD9636_PRES TD9635_LAT TD9635_LON TD9635_WIND TD9635_PRES TD9635_ROCI NEUMANN_LAT NEUMANN_LON NEUMANN_CLASS NEUMANN_WIND NEUMANN_PRES MLC_LAT MLC_LON MLC_CLASS MLC_WIND MLC_PRES USA_GUST BOM_GUST BOM_GUST_PER REUNION_GUST REUNION_GUST_PER USA_SEAHGT USA_SEARAD_NE USA_SEARAD_SE USA_SEARAD_SW USA_SEARAD_NW STORM_SPEED STORM_DIR
1888276N14297 1888 52 NA CS NOT_NAMED 1888-10-01 12:00:00 TS 14.2000 -63.0000 main 391 391 _____________O -1 14.2000 -63.0000 TD 30 11 327
1888276N14297 1888 52 NA CS NOT_NAMED 1888-10-01 15:00:00 TS 14.6601 -63.3122 main 448 400 _____________P -1 14.6601 -63.3122 TD 30 11 327
1888276N14297 1888 52 NA CS NOT_NAMED 1888-10-01 18:00:00 TS 15.1000 -63.6000 main 400 351 _____________O -1 15.1000 -63.6000 TD 30 10 328
1888276N14297 1888 52 NA CS NOT_NAMED 1888-10-01 21:00:00 TS 15.5074 -63.8502 main 345 296 _____________P -1 15.5074 -63.8502 TD 30 9 329
1888276N14297 1888 52 NA CS NOT_NAMED 1888-10-02 00:00:00 TS 15.9000 -64.1000 main 296 241 _____________O -1 15.9000 -64.1000 TD 30 10 326
1888276N14297 1888 52 NA CS NOT_NAMED 1888-10-02 03:00:00 TS 16.3000 -64.4000 main 241 186 _____________P -1 16.3000 -64.4000 TD 30 10 324
1888276N14297 1888 52 NA CS NOT_NAMED 1888-10-02 06:00:00 TS 16.7000 -64.7000 main 186 138 _____________O -1 16.7000 -64.7000 TD 30 10 326
1888276N14297 1888 52 NA CS NOT_NAMED 1888-10-02 09:00:00 TS 17.0999 -64.9576 main 131 84 _____________P -1 17.0999 -64.9576 TD 30 9 329
1888276N14297 1888 52 NA CS NOT_NAMED 1888-10-02 12:00:00 TS 17.5000 -65.2000 main 84 39 _____________O -1 17.5000 -65.2000 TD 30 9 329
1888276N14297 1888 52 NA CS NOT_NAMED 1888-10-02 15:00:00 TS 17.9075 -65.4575 main 33 0 _____________P -1 17.9075 -65.4575 TD 30 9 329
1888276N14297 1888 52 NA CS NOT_NAMED 1888-10-02 18:00:00 TS 18.3000 -65.7000 main 0 0 _____________O -1 18.3000 -65.7000 TD 30 9 330
1888276N14297 1888 52 NA NA NOT_NAMED 1888-10-02 21:00:00 TS 18.6499 -65.9002 main 22 22 _____________P -1 18.6499 -65.9002 TD 30 8 332
1888276N14297 1888 52 NA NA NOT_NAMED 1888-10-03 00:00:00 TS 19.0000 -66.1000 main 67 67 _____________O -1 19.0000 -66.1000 TD 30 9 330
1888276N14297 1888 52 NA NA NOT_NAMED 1888-10-03 03:00:00 TS 19.4000 -66.3500 main 111 111 _____________P -1 19.4000 -66.3500 TD 30 9 329
1888276N14297 1888 52 NA NA NOT_NAMED 1888-10-03 06:00:00 TS 19.8000 -66.6000 main 156 156 _____________O -1 19.8000 -66.6000 TD 30 9 331
1888276N14297 1888 52 NA NA NOT_NAMED 1888-10-03 09:00:00 TS 20.1499 -66.8003 main 190 190 _____________P -1 20.1499 -66.8003 TD 30 8 332
1888276N14297 1888 52 NA NA NOT_NAMED 1888-10-03 12:00:00 TS 20.5000 -67.0000 main 234 234 _____________O -1 20.5000 -67.0000 TD 30 9 331
1888276N14297 1888 52 NA NA NOT_NAMED 1888-10-03 15:00:00 TS 20.9000 -67.2499 main 276 271 _____________P -1 20.9000 -67.2499 TD 30 9 330
1888276N14297 1888 52 NA NA NOT_NAMED 1888-10-03 18:00:00 TS 21.3000 -67.5000 main 291 291 _____________O -1 21.3000 -67.5000 TD 30 9 331
1888276N14297 1888 52 NA NA NOT_NAMED 1888-10-03 21:00:00 TS 21.6499 -67.7003 main 306 306 _____________P -1 21.6499 -67.7003 TD 30 8 332
1888276N14297 1888 52 NA NA NOT_NAMED 1888-10-04 00:00:00 TS 22.0000 -67.9000 main 335 335 _____________O -1 22.0000 -67.9000 TD 30 9 331
1888276N14297 1888 52 NA NA NOT_NAMED 1888-10-04 03:00:00 TS 22.4000 -68.1499 main 368 364 _____________P -1 22.4000 -68.1499 TD 30 9 330
1888276N14297 1888 52 NA NA NOT_NAMED 1888-10-04 06:00:00 TS 22.8000 -68.4000 main 394 394 _____________O -1 22.8000 -68.4000 TD 30 9 331
1888276N14297 1888 52 NA NA NOT_NAMED 1888-10-04 09:00:00 TS 23.1725 -68.6225 main 427 424 _____________P -1 23.1725 -68.6225 TD 30 8 332
1888276N14297 1888 52 NA NA NOT_NAMED 1888-10-04 12:00:00 TS 23.5000 -68.8000 main 453 453 _____________O -1 23.5000 -68.8000 TD 30 7 336
1888276N14297 1888 52 NA NA NOT_NAMED 1888-10-04 15:00:00 TS 23.7649 -68.9152 main 480 480 _____________P -1 23.7649 -68.9152 TD 30 5 340
1888276N14297 1888 52 NA NA NOT_NAMED 1888-10-04 18:00:00 TS 24.0000 -69.0000 main 497 497 _____________O -1 24.0000 -69.0000 TD 30 5 341
1888276N14297 1888 52 NA NA NOT_NAMED 1888-10-04 21:00:00 TS 24.2500 -69.1000 main 515 515 _____________P -1 24.2500 -69.1000 TD 30 5 340
1888276N14297 1888 52 NA NA NOT_NAMED 1888-10-05 00:00:00 TS 24.5000 -69.2000 main 536 536 _____________O -1 24.5000 -69.2000 TD 30 5 339
1888276N14297 1888 52 NA NA NOT_NAMED 1888-10-05 03:00:00 TS 24.7500 -69.3075 main 552 552 _____________P -1 24.7500 -69.3075 TD 32 5 340
1888276N14297 1888 52 NA NA NOT_NAMED 1888-10-05 06:00:00 TS 25.0000 -69.4000 main 561 561 _____________O -1 25.0000 -69.4000 TS 35 5 344
1888276N14297 1888 52 NA NA NOT_NAMED 1888-10-05 09:00:00 TS 25.2500 -69.4650 main 572 572 _____________P -1 25.2500 -69.4650 TS 35 5 350
1888276N14297 1888 52 NA NA NOT_NAMED 1888-10-05 12:00:00 TS 25.5000 -69.5000 main 598 598 _____________O -1 25.5000 -69.5000 TS 35 5 353
1888276N14297 1888 52 NA NA NOT_NAMED 1888-10-05 15:00:00 TS 25.7500 -69.5224 main 616 616 _____________P -1 25.7500 -69.5224 TS 35 5 2
1888276N14297 1888 52 NA NA NOT_NAMED 1888-10-05 18:00:00 TS 26.0000 -69.5000 main 644 644 _____________O -1 26.0000 -69.5000 TS 35 5 12
1888276N14297 1888 52 NA NA NOT_NAMED 1888-10-05 21:00:00 TS 26.2500 -69.4076 main 677 677 _____________P -1 26.2500 -69.4076 TS 35 5 20
1888276N14297 1888 52 NA NA NOT_NAMED 1888-10-06 00:00:00 TS 26.5000 -69.3000 main 701 701 _____________O -1 26.5000 -69.3000 TS 35 5 16
1888276N14297 1888 52 NA NA NOT_NAMED 1888-10-06 03:00:00 TS 26.7500 -69.2499 main 725 725 _____________P -1 26.7500 -69.2499 TS 35 5 10
1888276N14297 1888 52 NA NA NOT_NAMED 1888-10-06 06:00:00 TS 27.0000 -69.2000 main 753 753 _____________O -1 27.0000 -69.2000 TS 35 5 11
1888276N14297 1888 52 NA NA NOT_NAMED 1888-10-06 09:00:00 TS 27.2349 -69.1446 main 778 778 _____________P -1 27.2349 -69.1446 TS 37 5 20
1888276N14297 1888 52 NA NA NOT_NAMED 1888-10-06 12:00:00 TS 27.5000 -69.0000 main 811 811 _____________O -1 27.5000 -69.0000 TS 40 7 34
1888276N14297 1888 52 NA NA NOT_NAMED 1888-10-06 15:00:00 TS 27.8352 -68.6803 main 855 855 _____________P -1 27.8352 -68.6803 TS 42 9 41
1888276N14297 1888 52 NA NA NOT_NAMED 1888-10-06 18:00:00 TS 28.2000 -68.3000 main 914 914 _____________O -1 28.2000 -68.3000 TS 45 9 40
1888276N14297 1888 52 NA NA NOT_NAMED 1888-10-06 21:00:00 TS 28.5499 -67.9922 main 958 958 _____________P -1 28.5499 -67.9922 TS 45 9 37
1888276N14297 1888 52 NA NA NOT_NAMED 1888-10-07 00:00:00 TS 28.9000 -67.7000 main 1011 1011 _____________O -1 28.9000 -67.7000 TS 45 9 36
1888276N14297 1888 52 NA NA NOT_NAMED 1888-10-07 03:00:00 TS 29.2574 -67.3999 main 1043 1043 _____________P -1 29.2574 -67.3999 TS 45 9 37
1888276N14297 1888 52 NA NA NOT_NAMED 1888-10-07 06:00:00 TS 29.6000 -67.1000 main 1044 1043 _____________O -1 29.6000 -67.1000 TS 45 8 39
1888276N14297 1888 52 NA NA NOT_NAMED 1888-10-07 09:00:00 TS 29.8848 -66.8144 main 1043 1043 _____________P -1 29.8848 -66.8144 TS 45 8 41
1888276N14297 1888 52 NA NA NOT_NAMED 1888-10-07 12:00:00 TS 30.2000 -66.5000 main 1044 1037 _____________O -1 30.2000 -66.5000 TS 45 10 39
1888276N14297 1888 52 NA NA NOT_NAMED 1888-10-07 15:00:00 TS 30.6349 -66.1225 main 1047 1040 _____________P -1 30.6349 -66.1225 TS 45 11 37
1888276N14297 1888 52 NA NA NOT_NAMED 1888-10-07 18:00:00 TS 31.1000 -65.7000 main 1047 1047 _____________O -1 31.1000 -65.7000 TS 45 11 40
1888276N14297 1888 52 NA NA NOT_NAMED 1888-10-07 21:00:00 TS 31.5074 -65.2571 main 1056 1056 _____________P -1 31.5074 -65.2571 TS 45 11 44
1888276N14297 1888 52 NA NA NOT_NAMED 1888-10-08 00:00:00 TS 31.9000 -64.8000 main 1076 1076 _____________O -1 31.9000 -64.8000 TS 45 11 44
1888276N14297 1888 52 NA NA NOT_NAMED 1888-10-08 03:00:00 TS 32.2998 -64.3496 main 1100 1095 _____________P -1 32.2998 -64.3496 TS 42 11 44
1888276N14297 1888 52 NA NA NOT_NAMED 1888-10-08 06:00:00 TS 32.7000 -63.9000 main 1117 1115 _____________O -1 32.7000 -63.9000 TS 40 11 43
1888276N14297 1888 52 NA NA NOT_NAMED 1888-10-08 09:00:00 TS 33.1003 -63.4508 main 1115 1095 _____________P -1 33.1003 -63.4508 TS 37 11 43
1888276N14297 1888 52 NA NA NOT_NAMED 1888-10-08 12:00:00 TS 33.5000 -63.0000 main 1100 _____________O -1 33.5000 -63.0000 TS 35 11 43

About IBTrACS Database

This database is a web-friendly format of International Best Track Archive for Climate Stewardship (IBTrACS), a global best track data archive curated by NOAA dating back to 1842.

Updated: 2021-12-03